sensor_id;sensor_type;location;lat;lon;timestamp;pressure;altitude;pressure_sealevel;temperature;humidity
55759;BME280;41678;52.126;20.664;2023-12-20T00:01:40;99624.25;;;5.74;100.00
55759;BME280;41678;52.126;20.664;2023-12-20T00:06:59;99606.00;;;5.66;100.00
55759;BME280;41678;52.126;20.664;2023-12-20T00:12:19;99614.69;;;5.70;100.00
55759;BME280;41678;52.126;20.664;2023-12-20T00:17:38;99610.34;;;5.61;100.00
55759;BME280;41678;52.126;20.664;2023-12-20T00:22:58;99614.69;;;5.66;100.00
55759;BME280;41678;52.126;20.664;2023-12-20T00:28:18;99602.53;;;5.59;100.00
55759;BME280;41678;52.126;20.664;2023-12-20T00:33:37;99611.22;;;5.69;100.00
55759;BME280;41678;52.126;20.664;2023-12-20T00:38:59;99587.72;;;5.60;100.00
55759;BME280;41678;52.126;20.664;2023-12-20T00:44:18;99590.31;;;5.60;100.00
55759;BME280;41678;52.126;20.664;2023-12-20T00:49:38;99605.13;;;5.67;100.00
55759;BME280;41678;52.126;20.664;2023-12-20T00:54:57;99590.34;;;5.63;100.00
55759;BME280;41678;52.126;20.664;2023-12-20T01:00:17;99587.72;;;5.61;100.00
55759;BME280;41678;52.126;20.664;2023-12-20T01:05:37;99572.06;;;5.58;100.00
55759;BME280;41678;52.126;20.664;2023-12-20T01:10:56;99581.63;;;5.61;100.00
55759;BME280;41678;52.126;20.664;2023-12-20T01:47:01;99553.75;;;5.66;100.00
55759;BME280;41678;52.126;20.664;2023-12-20T01:52:21;99547.66;;;5.62;100.00
55759;BME280;41678;52.126;20.664;2023-12-20T01:57:41;99537.25;;;5.59;100.00
55759;BME280;41678;52.126;20.664;2023-12-20T02:03:02;99546.81;;;5.65;100.00
55759;BME280;41678;52.126;20.664;2023-12-20T02:08:27;99533.72;;;5.68;100.00
55759;BME280;41678;52.126;20.664;2023-12-20T02:13:46;99532.88;;;5.66;100.00
55759;BME280;41678;52.126;20.664;2023-12-20T02:19:13;99521.56;;;5.64;100.00
55759;BME280;41678;52.126;20.664;2023-12-20T02:24:33;99496.31;;;5.57;100.00
55759;BME280;41678;52.126;20.664;2023-12-20T02:29:52;99507.66;;;5.62;100.00
55759;BME280;41678;52.126;20.664;2023-12-20T02:35:12;99495.47;;;5.59;100.00
55759;BME280;41678;52.126;20.664;2023-12-20T02:40:32;99508.47;;;5.70;100.00
55759;BME280;41678;52.126;20.664;2023-12-20T02:45:52;99508.47;;;5.70;100.00
55759;BME280;41678;52.126;20.664;2023-12-20T02:51:11;99508.47;;;5.70;100.00
55759;BME280;41678;52.126;20.664;2023-12-20T02:56:34;99508.47;;;5.70;100.00
55759;BME280;41678;52.126;20.664;2023-12-20T03:01:54;99508.47;;;5.70;100.00
55759;BME280;41678;52.126;20.664;2023-12-20T03:07:13;99508.47;;;5.70;100.00
55759;BME280;41678;52.126;20.664;2023-12-20T03:12:33;99508.47;;;5.70;100.00
55759;BME280;41678;52.126;20.664;2023-12-20T03:17:52;99508.47;;;5.70;100.00
55759;BME280;41678;52.126;20.664;2023-12-20T03:23:12;99508.47;;;5.70;100.00
55759;BME280;41678;52.126;20.664;2023-12-20T03:28:31;99508.47;;;5.70;100.00
55759;BME280;41678;52.126;20.664;2023-12-20T03:33:51;99508.47;;;5.70;100.00
55759;BME280;41678;52.126;20.664;2023-12-20T03:39:13;99508.47;;;5.70;100.00
55759;BME280;41678;52.126;20.664;2023-12-20T03:44:33;99508.47;;;5.70;100.00
55759;BME280;41678;52.126;20.664;2023-12-20T03:49:53;99508.47;;;5.70;100.00
55759;BME280;41678;52.126;20.664;2023-12-20T03:55:12;99508.47;;;5.70;100.00
55759;BME280;41678;52.126;20.664;2023-12-20T04:05:51;75987.56;;;-148.44;100.00
55759;BME280;41678;52.126;20.664;2023-12-20T04:11:11;99508.47;;;5.70;100.00
55759;BME280;41678;52.126;20.664;2023-12-20T04:16:30;99508.47;;;5.70;100.00
55759;BME280;41678;52.126;20.664;2023-12-20T04:21:50;58504.53;;;-148.44;100.00
55759;BME280;41678;52.126;20.664;2023-12-20T04:27:10;58504.53;;;-148.44;100.00
55759;BME280;41678;52.126;20.664;2023-12-20T04:32:30;58504.53;;;-148.44;100.00
55759;BME280;41678;52.126;20.664;2023-12-20T04:37:50;58504.53;;;-148.44;100.00
55759;BME280;41678;52.126;20.664;2023-12-20T04:43:10;58504.53;;;-148.44;100.00
55759;BME280;41678;52.126;20.664;2023-12-20T04:48:29;58504.53;;;-148.44;100.00
55759;BME280;41678;52.126;20.664;2023-12-20T04:53:49;58504.53;;;-148.44;100.00
55759;BME280;41678;52.126;20.664;2023-12-20T04:59:08;58504.53;;;-148.44;100.00
55759;BME280;41678;52.126;20.664;2023-12-20T05:04:28;58504.53;;;-148.44;100.00
55759;BME280;41678;52.126;20.664;2023-12-20T05:09:47;58504.53;;;-148.44;100.00
55759;BME280;41678;52.126;20.664;2023-12-20T05:15:07;58504.53;;;-148.44;100.00
55759;BME280;41678;52.126;20.664;2023-12-20T05:20:26;58504.53;;;-148.44;100.00
55759;BME280;41678;52.126;20.664;2023-12-20T05:25:46;58504.53;;;-148.44;100.00
55759;BME280;41678;52.126;20.664;2023-12-20T05:31:05;58504.53;;;-148.44;100.00
55759;BME280;41678;52.126;20.664;2023-12-20T05:36:26;58504.53;;;-148.44;100.00
55759;BME280;41678;52.126;20.664;2023-12-20T05:41:45;58504.53;;;-148.44;100.00
55759;BME280;41678;52.126;20.664;2023-12-20T05:47:05;58504.53;;;-148.44;100.00
55759;BME280;41678;52.126;20.664;2023-12-20T05:52:25;58504.53;;;-148.44;100.00
55759;BME280;41678;52.126;20.664;2023-12-20T05:57:44;58504.53;;;-148.44;100.00
55759;BME280;41678;52.126;20.664;2023-12-20T06:03:04;58504.53;;;-148.44;100.00
55759;BME280;41678;52.126;20.664;2023-12-20T06:08:24;58504.53;;;-148.44;100.00
55759;BME280;41678;52.126;20.664;2023-12-20T06:13:43;58504.53;;;-148.44;100.00
55759;BME280;41678;52.126;20.664;2023-12-20T06:19:03;58504.53;;;-148.44;100.00
55759;BME280;41678;52.126;20.664;2023-12-20T06:24:26;58504.53;;;-148.44;100.00
55759;BME280;41678;52.126;20.664;2023-12-20T06:29:47;58504.53;;;-148.44;100.00
55759;BME280;41678;52.126;20.664;2023-12-20T06:35:13;58504.53;;;-148.44;100.00
55759;BME280;41678;52.126;20.664;2023-12-20T06:40:52;58504.53;;;-148.44;100.00
55759;BME280;41678;52.126;20.664;2023-12-20T06:46:21;58504.53;;;-148.44;100.00
55759;BME280;41678;52.126;20.664;2023-12-20T06:51:43;58504.53;;;-148.44;100.00
55759;BME280;41678;52.126;20.664;2023-12-20T12:44:18;58504.53;;;-148.44;100.00
55759;BME280;41678;52.126;20.664;2023-12-20T12:49:40;58504.53;;;-148.44;100.00
55759;BME280;41678;52.126;20.664;2023-12-20T12:54:59;58504.53;;;-148.44;100.00
55759;BME280;41678;52.126;20.664;2023-12-20T13:00:19;58504.53;;;-148.44;100.00
55759;BME280;41678;52.126;20.664;2023-12-20T13:05:38;58504.53;;;-148.44;100.00
55759;BME280;41678;52.126;20.664;2023-12-20T13:10:58;58504.53;;;-148.44;100.00
55759;BME280;41678;52.126;20.664;2023-12-20T13:16:20;58504.53;;;-148.44;100.00
55759;BME280;41678;52.126;20.664;2023-12-20T13:21:40;58504.53;;;-148.44;100.00
55759;BME280;41678;52.126;20.664;2023-12-20T13:27:00;58504.53;;;-148.44;100.00
55759;BME280;41678;52.126;20.664;2023-12-20T13:32:20;58504.53;;;-148.44;100.00
55759;BME280;41678;52.126;20.664;2023-12-20T13:37:40;58504.53;;;-148.44;100.00
55759;BME280;41678;52.126;20.664;2023-12-20T13:43:00;58504.53;;;-148.44;100.00
55759;BME280;41678;52.126;20.664;2023-12-20T13:48:20;58504.53;;;-148.44;100.00
55759;BME280;41678;52.126;20.664;2023-12-20T13:54:08;58504.53;;;-148.44;100.00
55759;BME280;41678;52.126;20.664;2023-12-20T13:59:30;58504.53;;;-148.44;100.00
55759;BME280;41678;52.126;20.664;2023-12-20T14:04:50;58504.53;;;-148.44;100.00
55759;BME280;41678;52.126;20.664;2023-12-20T14:10:10;58504.53;;;-148.44;100.00
55759;BME280;41678;52.126;20.664;2023-12-20T14:15:30;58504.53;;;-148.44;100.00
55759;BME280;41678;52.126;20.664;2023-12-20T14:20:55;58504.53;;;-148.44;100.00
55759;BME280;41678;52.126;20.664;2023-12-20T14:26:15;58504.53;;;-148.44;100.00
55759;BME280;41678;52.126;20.664;2023-12-20T14:31:39;58504.53;;;-148.44;100.00
55759;BME280;41678;52.126;20.664;2023-12-20T14:37:00;58504.53;;;-148.44;100.00
55759;BME280;41678;52.126;20.664;2023-12-20T14:42:19;58504.53;;;-148.44;100.00
55759;BME280;41678;52.126;20.664;2023-12-20T14:47:39;58504.53;;;-148.44;100.00
55759;BME280;41678;52.126;20.664;2023-12-20T14:52:58;58504.53;;;-148.44;100.00
55759;BME280;41678;52.126;20.664;2023-12-20T14:58:19;58504.53;;;-148.44;100.00
55759;BME280;41678;52.126;20.664;2023-12-20T15:03:39;58504.53;;;-148.44;100.00
55759;BME280;41678;52.126;20.664;2023-12-20T15:08:59;58504.53;;;-148.44;100.00
55759;BME280;41678;52.126;20.664;2023-12-20T15:14:19;58504.53;;;-148.44;100.00
55759;BME280;41678;52.126;20.664;2023-12-20T15:19:41;58504.53;;;-148.44;100.00
55759;BME280;41678;52.126;20.664;2023-12-20T15:25:02;58504.53;;;-148.44;100.00
55759;BME280;41678;52.126;20.664;2023-12-20T15:30:23;58504.53;;;-148.44;100.00
55759;BME280;41678;52.126;20.664;2023-12-20T15:35:45;58504.53;;;-148.44;100.00
55759;BME280;41678;52.126;20.664;2023-12-20T15:41:05;58504.53;;;-148.44;100.00
55759;BME280;41678;52.126;20.664;2023-12-20T15:46:24;58504.53;;;-148.44;100.00
55759;BME280;41678;52.126;20.664;2023-12-20T15:51:45;58504.53;;;-148.44;100.00
55759;BME280;41678;52.126;20.664;2023-12-20T15:57:04;58504.53;;;-148.44;100.00
55759;BME280;41678;52.126;20.664;2023-12-20T16:02:24;58504.53;;;-148.44;100.00
55759;BME280;41678;52.126;20.664;2023-12-20T16:07:43;58504.53;;;-148.44;100.00
55759;BME280;41678;52.126;20.664;2023-12-20T16:13:04;58504.53;;;-148.44;100.00
55759;BME280;41678;52.126;20.664;2023-12-20T16:18:23;58504.53;;;-148.44;100.00
55759;BME280;41678;52.126;20.664;2023-12-20T16:23:43;58504.53;;;-148.44;100.00
55759;BME280;41678;52.126;20.664;2023-12-20T16:29:02;58504.53;;;-148.44;100.00
55759;BME280;41678;52.126;20.664;2023-12-20T16:34:22;58504.53;;;-148.44;100.00
55759;BME280;41678;52.126;20.664;2023-12-20T16:39:42;58504.53;;;-148.44;100.00
55759;BME280;41678;52.126;20.664;2023-12-20T16:45:02;58504.53;;;-148.44;100.00
55759;BME280;41678;52.126;20.664;2023-12-20T16:50:23;58504.53;;;-148.44;100.00
55759;BME280;41678;52.126;20.664;2023-12-20T16:55:42;58504.53;;;-148.44;100.00
55759;BME280;41678;52.126;20.664;2023-12-20T17:01:03;58504.53;;;-148.44;100.00
55759;BME280;41678;52.126;20.664;2023-12-20T17:06:24;58504.53;;;-148.44;100.00
55759;BME280;41678;52.126;20.664;2023-12-20T17:11:46;58504.53;;;-148.44;100.00
55759;BME280;41678;52.126;20.664;2023-12-20T17:17:05;58504.53;;;-148.44;100.00
55759;BME280;41678;52.126;20.664;2023-12-20T17:22:25;58504.53;;;-148.44;100.00
55759;BME280;41678;52.126;20.664;2023-12-20T17:27:45;58504.53;;;-148.44;100.00
55759;BME280;41678;52.126;20.664;2023-12-20T17:33:05;58504.53;;;-148.44;100.00
55759;BME280;41678;52.126;20.664;2023-12-20T17:38:24;58504.53;;;-148.44;100.00
55759;BME280;41678;52.126;20.664;2023-12-20T17:43:44;58504.53;;;-148.44;100.00
55759;BME280;41678;52.126;20.664;2023-12-20T17:49:04;58504.53;;;-148.44;100.00
55759;BME280;41678;52.126;20.664;2023-12-20T17:54:24;58504.53;;;-148.44;100.00
55759;BME280;41678;52.126;20.664;2023-12-20T17:59:44;58504.53;;;-148.44;100.00
55759;BME280;41678;52.126;20.664;2023-12-20T18:05:04;58504.53;;;-148.44;100.00
55759;BME280;41678;52.126;20.664;2023-12-20T18:10:24;58504.53;;;-148.44;100.00
55759;BME280;41678;52.126;20.664;2023-12-20T18:15:44;58504.53;;;-148.44;100.00
55759;BME280;41678;52.126;20.664;2023-12-20T18:21:04;58504.53;;;-148.44;100.00
55759;BME280;41678;52.126;20.664;2023-12-20T18:26:24;58504.53;;;-148.44;100.00
55759;BME280;41678;52.126;20.664;2023-12-20T18:31:50;58504.53;;;-148.44;100.00
55759;BME280;41678;52.126;20.664;2023-12-20T18:37:25;58504.53;;;-148.44;100.00
55759;BME280;41678;52.126;20.664;2023-12-20T18:42:45;58504.53;;;-148.44;100.00
55759;BME280;41678;52.126;20.664;2023-12-20T18:48:05;58504.53;;;-148.44;100.00
55759;BME280;41678;52.126;20.664;2023-12-20T18:53:25;58504.53;;;-148.44;100.00
55759;BME280;41678;52.126;20.664;2023-12-20T18:58:45;58504.53;;;-148.44;100.00
55759;BME280;41678;52.126;20.664;2023-12-20T19:04:06;58504.53;;;-148.44;100.00
55759;BME280;41678;52.126;20.664;2023-12-20T19:09:26;58504.53;;;-148.44;100.00
55759;BME280;41678;52.126;20.664;2023-12-20T19:14:46;58504.53;;;-148.44;100.00
55759;BME280;41678;52.126;20.664;2023-12-20T19:20:05;58504.53;;;-148.44;100.00
55759;BME280;41678;52.126;20.664;2023-12-20T19:25:25;58504.53;;;-148.44;100.00
55759;BME280;41678;52.126;20.664;2023-12-20T19:30:46;58504.53;;;-148.44;100.00
55759;BME280;41678;52.126;20.664;2023-12-20T19:36:06;58504.53;;;-148.44;100.00
55759;BME280;41678;52.126;20.664;2023-12-20T19:41:26;58504.53;;;-148.44;100.00
55759;BME280;41678;52.126;20.664;2023-12-20T19:46:46;58504.53;;;-148.44;100.00
55759;BME280;41678;52.126;20.664;2023-12-20T19:52:07;58504.53;;;-148.44;100.00
55759;BME280;41678;52.126;20.664;2023-12-20T19:57:26;58504.53;;;-148.44;100.00
55759;BME280;41678;52.126;20.664;2023-12-20T20:02:46;58504.53;;;-148.44;100.00
55759;BME280;41678;52.126;20.664;2023-12-20T20:08:06;58504.53;;;-148.44;100.00
55759;BME280;41678;52.126;20.664;2023-12-20T20:13:26;58504.53;;;-148.44;100.00
55759;BME280;41678;52.126;20.664;2023-12-20T20:18:46;58504.53;;;-148.44;100.00
55759;BME280;41678;52.126;20.664;2023-12-20T20:24:06;58504.53;;;-148.44;100.00
55759;BME280;41678;52.126;20.664;2023-12-20T20:29:26;58504.53;;;-148.44;100.00
55759;BME280;41678;52.126;20.664;2023-12-20T20:34:45;58504.53;;;-148.44;100.00
55759;BME280;41678;52.126;20.664;2023-12-20T20:40:06;58504.53;;;-148.44;100.00
55759;BME280;41678;52.126;20.664;2023-12-20T20:45:26;58504.53;;;-148.44;100.00
55759;BME280;41678;52.126;20.664;2023-12-20T20:50:46;58504.53;;;-148.44;100.00
55759;BME280;41678;52.126;20.664;2023-12-20T20:56:05;58504.53;;;-148.44;100.00
55759;BME280;41678;52.126;20.664;2023-12-20T21:01:25;58504.53;;;-148.44;100.00
55759;BME280;41678;52.126;20.664;2023-12-20T21:06:45;58504.53;;;-148.44;100.00
55759;BME280;41678;52.126;20.664;2023-12-20T21:12:06;58504.53;;;-148.44;100.00
55759;BME280;41678;52.126;20.664;2023-12-20T21:17:26;58504.53;;;-148.44;100.00
55759;BME280;41678;52.126;20.664;2023-12-20T21:22:45;58504.53;;;-148.44;100.00
55759;BME280;41678;52.126;20.664;2023-12-20T21:28:05;58504.53;;;-148.44;100.00
55759;BME280;41678;52.126;20.664;2023-12-20T21:33:24;58504.53;;;-148.44;100.00
55759;BME280;41678;52.126;20.664;2023-12-20T21:38:44;58504.53;;;-148.44;100.00
55759;BME280;41678;52.126;20.664;2023-12-20T21:44:03;58504.53;;;-148.44;100.00
55759;BME280;41678;52.126;20.664;2023-12-20T21:49:23;58504.53;;;-148.44;100.00
55759;BME280;41678;52.126;20.664;2023-12-20T21:54:55;99164.81;;;3.00;100.00
55759;BME280;41678;52.126;20.664;2023-12-20T22:00:16;99169.19;;;2.99;100.00
55759;BME280;41678;52.126;20.664;2023-12-20T22:05:37;99179.56;;;3.01;100.00
55759;BME280;41678;52.126;20.664;2023-12-20T22:10:57;99163.09;;;2.98;100.00
55759;BME280;41678;52.126;20.664;2023-12-20T22:16:16;99160.50;;;3.02;100.00
55759;BME280;41678;52.126;20.664;2023-12-20T22:21:36;99161.38;;;2.99;100.00
55759;BME280;41678;52.126;20.664;2023-12-20T22:26:55;99173.53;;;3.05;100.00
55759;BME280;41678;52.126;20.664;2023-12-20T22:32:16;99186.50;;;3.02;100.00
55759;BME280;41678;52.126;20.664;2023-12-20T22:37:36;99185.63;;;3.03;100.00
55759;BME280;41678;52.126;20.664;2023-12-20T22:42:56;99177.84;;;3.01;100.00
55759;BME280;41678;52.126;20.664;2023-12-20T22:48:15;99171.78;;;2.99;100.00
55759;BME280;41678;52.126;20.664;2023-12-20T22:53:34;99163.97;;;3.02;100.00
55759;BME280;41678;52.126;20.664;2023-12-20T22:58:54;99154.44;;;3.00;100.00
55759;BME280;41678;52.126;20.664;2023-12-20T23:04:13;99154.44;;;3.06;100.00
55759;BME280;41678;52.126;20.664;2023-12-20T23:09:33;99161.38;;;3.05;100.00
55759;BME280;41678;52.126;20.664;2023-12-20T23:14:53;99148.34;;;3.01;100.00
55759;BME280;41678;52.126;20.664;2023-12-20T23:20:12;99141.41;;;3.03;100.00
55759;BME280;41678;52.126;20.664;2023-12-20T23:25:32;99149.25;;;3.06;100.00
55759;BME280;41678;52.126;20.664;2023-12-20T23:30:52;99131.91;;;3.05;100.00
55759;BME280;41678;52.126;20.664;2023-12-20T23:36:12;99137.97;;;3.07;100.00
55759;BME280;41678;52.126;20.664;2023-12-20T23:41:32;99118.03;;;3.04;100.00
55759;BME280;41678;52.126;20.664;2023-12-20T23:46:51;99121.50;;;3.08;100.00
55759;BME280;41678;52.126;20.664;2023-12-20T23:52:11;99112.81;;;3.03;100.00
55759;BME280;41678;52.126;20.664;2023-12-20T23:57:30;99112.81;;;3.00;100.00
